GRZ505 Details

Departure: Fairbanks International Airport (PAFA)
Arrival: Juneau International Airport (PAJN) at N/A
Route: FAI J502 SSR
Notes:


Current Weather Information
PAFA 250453Z 26003KT 10SM FEW050 FEW180 13/04 A2977 RMK AO2 SLP087 T01280044
PAJN 250453Z 07004KT 10SM FEW005 BKN075 OVC095 12/11 A2987 RMK AO2 SLP116 T01220111